This is the latest recevied weather packets stored in our database for station/object DH5DY-6. If no packets are shown the sender has not sent any weather packets the latest 10 day(s).
| Time | Temp. | Humidity | Pressure | Rain* | Wind** | Luminosity | Snow |
|---|---|---|---|---|---|---|---|
| 1777631892 | 18.33° C | 33% | 1025.3 hPa | 0 mm | - | 756 W/m² | - |
| 1777629491 | 17.22° C | 33% | 1025.8 hPa | 0 mm | - | 715 W/m² | - |
| 1777628892 | 16.67° C | 34% | 1025.7 hPa | 0 mm | - | 703 W/m² | - |
| 1777627691 | 16.11° C | 34% | 1026 hPa | 0 mm | - | 675 W/m² | - |
| 1777627091 | 16.11° C | 33% | 1025.9 hPa | 0 mm | - | 657 W/m² | - |
| 1777625291 | 15.56° C | 34% | 1026.2 hPa | 0 mm | - | 601 W/m² | - |
| 1777623491 | 15° C | 34% | 1026.3 hPa | 0 mm | - | 541 W/m² | - |
| 1777622291 | 14.44° C | 35% | 1026.2 hPa | 0 mm | - | 496 W/m² | - |
| 1777621690 | 14.44° C | 35% | 1026.2 hPa | 0 mm | - | 471 W/m² | - |
| 1777619290 | 12.78° C | 41% | 1026.3 hPa | 0 mm | - | 257 W/m² | - |
| 1777618690 | 12.22° C | 45% | 1026.3 hPa | 0 mm | - | 343 W/m² | - |
| 1777618091 | 11.11° C | 49% | 1026.3 hPa | 0 mm | - | 316 W/m² | - |
| 1777616891 | 10° C | 56% | 1026.4 hPa | 0 mm | - | 39 W/m² | - |
| 1777616289 | 9.44° C | 57% | 1026.4 hPa | 0 mm | - | 58 W/m² | - |
| 1777615690 | 8.89° C | 57% | 1026.4 hPa | 0 mm | - | 209 W/m² | - |
| 1777615089 | 8.89° C | 59% | 1026.2 hPa | 0 mm | - | 102 W/m² | - |
| 1777614489 | 8.33° C | 60% | 1026.3 hPa | 0 mm | - | 44 W/m² | - |
| 1777613889 | 8.33° C | 60% | 1026.2 hPa | 0 mm | - | 51 W/m² | - |
| 1777613289 | 8.33° C | 60% | 1026.2 hPa | 0 mm | - | 46 W/m² | - |
| 1777612869 | 7.78° C | 60% | 1026 hPa | 0 mm | - | 33 W/m² | - |
| 1777612720 | 7.78° C | 60% | 1026 hPa | 0 mm | - | 33 W/m² | - |
| 1777612689 | 7.78° C | 60% | 1026 hPa | 0 mm | - | 33 W/m² | - |
| 1777612090 | 7.78° C | 61% | 1026 hPa | 0 mm | - | 56 W/m² | - |
| 1777611489 | 7.22° C | 61% | 1025.9 hPa | 0 mm | - | 37 W/m² | - |
| 1777610889 | 7.22° C | 61% | 1025.8 hPa | 0 mm | - | 16 W/m² | - |
* Rain latest hour (hover to see other rain measurements)
** Current wind speed in m/s (hover to see current wind gust speed)